sensor_id;sensor_type;location;lat;lon;timestamp;temperature;humidity
35593;DHT22;64447;52.140;5.602;2023-08-12T00:02:08;23.00;99.90
35593;DHT22;64447;52.140;5.602;2023-08-12T00:04:33;23.00;99.90
35593;DHT22;64447;52.140;5.602;2023-08-12T00:10:02;22.80;99.90
35593;DHT22;64447;52.140;5.602;2023-08-12T00:12:33;23.00;99.90
35593;DHT22;64447;52.140;5.602;2023-08-12T00:14:58;23.00;99.90
35593;DHT22;64447;52.140;5.602;2023-08-12T00:17:24;22.90;99.90
35593;DHT22;64447;52.140;5.602;2023-08-12T00:19:49;22.90;99.90
35593;DHT22;64447;52.140;5.602;2023-08-12T00:25:18;22.60;99.90
35593;DHT22;64447;52.140;5.602;2023-08-12T00:27:43;22.70;99.90
35593;DHT22;64447;52.140;5.602;2023-08-12T00:30:09;22.80;99.90
35593;DHT22;64447;52.140;5.602;2023-08-12T00:32:34;23.00;99.90
35593;DHT22;64447;52.140;5.602;2023-08-12T00:35:00;23.00;99.90
35593;DHT22;64447;52.140;5.602;2023-08-12T00:40:29;22.80;99.90
35593;DHT22;64447;52.140;5.602;2023-08-12T00:42:54;22.80;99.90
35593;DHT22;64447;52.140;5.602;2023-08-12T00:45:20;22.70;99.90
35593;DHT22;64447;52.140;5.602;2023-08-12T00:47:45;22.80;99.90
35593;DHT22;64447;52.140;5.602;2023-08-12T00:50:11;22.80;99.90
35593;DHT22;64447;52.140;5.602;2023-08-12T00:52:38;22.80;99.90
35593;DHT22;64447;52.140;5.602;2023-08-12T00:55:05;22.80;99.90
35593;DHT22;64447;52.140;5.602;2023-08-12T00:57:30;22.80;99.90
35593;DHT22;64447;52.140;5.602;2023-08-12T00:59:56;22.80;99.90
35593;DHT22;64447;52.140;5.602;2023-08-12T01:02:22;22.70;99.90
35593;DHT22;64447;52.140;5.602;2023-08-12T01:04:47;22.50;99.90
35593;DHT22;64447;52.140;5.602;2023-08-12T01:10:15;22.50;99.90
35593;DHT22;64447;52.140;5.602;2023-08-12T01:13:16;22.60;99.90
35593;DHT22;64447;52.140;5.602;2023-08-12T01:15:33;22.60;99.90
35593;DHT22;64447;52.140;5.602;2023-08-12T01:17:59;22.50;99.90
35593;DHT22;64447;52.140;5.602;2023-08-12T01:20:25;22.50;99.90
35593;DHT22;64447;52.140;5.602;2023-08-12T01:22:56;22.50;99.90
35593;DHT22;64447;52.140;5.602;2023-08-12T01:25:23;22.40;99.90
35593;DHT22;64447;52.140;5.602;2023-08-12T01:27:49;22.50;99.90
35593;DHT22;64447;52.140;5.602;2023-08-12T01:30:15;22.60;99.90
35593;DHT22;64447;52.140;5.602;2023-08-12T01:32:42;22.50;99.90
35593;DHT22;64447;52.140;5.602;2023-08-12T01:40:39;22.50;99.90
35593;DHT22;64447;52.140;5.602;2023-08-12T01:43:05;22.30;99.90
35593;DHT22;64447;52.140;5.602;2023-08-12T01:45:33;22.20;99.90
35593;DHT22;64447;52.140;5.602;2023-08-12T01:47:59;22.20;99.90
35593;DHT22;64447;52.140;5.602;2023-08-12T01:50:24;22.20;99.90
35593;DHT22;64447;52.140;5.602;2023-08-12T01:55:54;22.20;99.90
35593;DHT22;64447;52.140;5.602;2023-08-12T01:58:19;22.30;99.90
35593;DHT22;64447;52.140;5.602;2023-08-12T02:00:45;22.40;99.90
35593;DHT22;64447;52.140;5.602;2023-08-12T02:03:10;22.40;99.90
35593;DHT22;64447;52.140;5.602;2023-08-12T02:05:36;22.40;99.90
35593;DHT22;64447;52.140;5.602;2023-08-12T02:08:03;22.50;99.90
35593;DHT22;64447;52.140;5.602;2023-08-12T02:10:28;22.50;99.90
35593;DHT22;64447;52.140;5.602;2023-08-12T02:12:54;22.60;99.90
35593;DHT22;64447;52.140;5.602;2023-08-12T02:15:19;22.60;99.90
35593;DHT22;64447;52.140;5.602;2023-08-12T02:17:45;22.70;99.90
35593;DHT22;64447;52.140;5.602;2023-08-12T02:20:10;22.70;99.90
35593;DHT22;64447;52.140;5.602;2023-08-12T02:25:39;22.70;99.90
35593;DHT22;64447;52.140;5.602;2023-08-12T02:28:04;22.60;99.90
35593;DHT22;64447;52.140;5.602;2023-08-12T02:30:30;22.60;99.90
35593;DHT22;64447;52.140;5.602;2023-08-12T02:32:56;22.50;99.90
35593;DHT22;64447;52.140;5.602;2023-08-12T02:35:21;22.40;99.90
35593;DHT22;64447;52.140;5.602;2023-08-12T02:40:50;22.30;99.90
35593;DHT22;64447;52.140;5.602;2023-08-12T02:43:16;22.40;99.90
35593;DHT22;64447;52.140;5.602;2023-08-12T02:45:41;22.10;99.90
35593;DHT22;64447;52.140;5.602;2023-08-12T02:48:08;22.00;99.90
35593;DHT22;64447;52.140;5.602;2023-08-12T02:50:33;21.90;99.90
35593;DHT22;64447;52.140;5.602;2023-08-12T02:56:01;21.70;99.90
35593;DHT22;64447;52.140;5.602;2023-08-12T02:58:27;21.70;99.90
35593;DHT22;64447;52.140;5.602;2023-08-12T03:00:54;21.60;99.90
35593;DHT22;64447;52.140;5.602;2023-08-12T03:03:19;21.60;99.90
35593;DHT22;64447;52.140;5.602;2023-08-12T03:05:46;21.40;99.90
35593;DHT22;64447;52.140;5.602;2023-08-12T03:11:14;21.40;99.90
35593;DHT22;64447;52.140;5.602;2023-08-12T03:13:41;21.50;99.90
35593;DHT22;64447;52.140;5.602;2023-08-12T03:16:10;21.50;99.90
35593;DHT22;64447;52.140;5.602;2023-08-12T03:18:36;21.30;99.90
35593;DHT22;64447;52.140;5.602;2023-08-12T03:21:05;21.30;99.90
35593;DHT22;64447;52.140;5.602;2023-08-12T03:23:30;21.30;99.90
35593;DHT22;64447;52.140;5.602;2023-08-12T03:25:56;21.40;99.90
35593;DHT22;64447;52.140;5.602;2023-08-12T03:28:21;21.30;99.90
35593;DHT22;64447;52.140;5.602;2023-08-12T03:30:50;21.20;99.90
35593;DHT22;64447;52.140;5.602;2023-08-12T03:33:16;21.20;99.90
35593;DHT22;64447;52.140;5.602;2023-08-12T03:35:44;21.40;99.90
35593;DHT22;64447;52.140;5.602;2023-08-12T03:41:12;21.40;99.90
35593;DHT22;64447;52.140;5.602;2023-08-12T03:43:38;21.50;99.90
35593;DHT22;64447;52.140;5.602;2023-08-12T03:46:03;21.70;99.90
35593;DHT22;64447;52.140;5.602;2023-08-12T03:48:29;21.90;99.90
35593;DHT22;64447;52.140;5.602;2023-08-12T03:50:54;21.80;99.90
35593;DHT22;64447;52.140;5.602;2023-08-12T03:56:23;21.50;99.90
35593;DHT22;64447;52.140;5.602;2023-08-12T03:58:48;21.60;99.90
35593;DHT22;64447;52.140;5.602;2023-08-12T04:01:14;21.50;99.90
35593;DHT22;64447;52.140;5.602;2023-08-12T04:03:39;21.60;99.90
35593;DHT22;64447;52.140;5.602;2023-08-12T04:06:05;21.60;99.90
35593;DHT22;64447;52.140;5.602;2023-08-12T04:11:33;21.70;99.90
35593;DHT22;64447;52.140;5.602;2023-08-12T04:13:58;21.70;99.90
35593;DHT22;64447;52.140;5.602;2023-08-12T04:16:24;21.70;99.90
35593;DHT22;64447;52.140;5.602;2023-08-12T04:18:49;21.60;99.90
35593;DHT22;64447;52.140;5.602;2023-08-12T04:21:15;21.70;99.90
35593;DHT22;64447;52.140;5.602;2023-08-12T04:26:43;21.80;99.90
35593;DHT22;64447;52.140;5.602;2023-08-12T04:29:09;22.00;99.90
35593;DHT22;64447;52.140;5.602;2023-08-12T04:31:34;22.00;99.90
35593;DHT22;64447;52.140;5.602;2023-08-12T04:34:00;22.10;99.90
35593;DHT22;64447;52.140;5.602;2023-08-12T04:36:26;22.10;99.90
35593;DHT22;64447;52.140;5.602;2023-08-12T04:38:52;21.90;99.90
35593;DHT22;64447;52.140;5.602;2023-08-12T04:41:18;21.80;99.90
35593;DHT22;64447;52.140;5.602;2023-08-12T04:43:44;21.80;99.90
35593;DHT22;64447;52.140;5.602;2023-08-12T04:46:09;21.70;99.90
35593;DHT22;64447;52.140;5.602;2023-08-12T04:48:34;21.70;99.90
35593;DHT22;64447;52.140;5.602;2023-08-12T04:51:00;21.50;99.90
35593;DHT22;64447;52.140;5.602;2023-08-12T04:56:30;21.30;99.90
35593;DHT22;64447;52.140;5.602;2023-08-12T04:58:55;21.30;99.90
35593;DHT22;64447;52.140;5.602;2023-08-12T05:01:21;21.30;99.90
35593;DHT22;64447;52.140;5.602;2023-08-12T05:03:47;21.30;99.90
35593;DHT22;64447;52.140;5.602;2023-08-12T05:06:12;21.20;99.90
35593;DHT22;64447;52.140;5.602;2023-08-12T05:11:40;21.00;99.90
35593;DHT22;64447;52.140;5.602;2023-08-12T05:14:06;21.10;99.90
35593;DHT22;64447;52.140;5.602;2023-08-12T05:16:31;21.00;99.90
35593;DHT22;64447;52.140;5.602;2023-08-12T05:18:57;21.00;99.90
35593;DHT22;64447;52.140;5.602;2023-08-12T05:21:22;21.10;99.90
35593;DHT22;64447;52.140;5.602;2023-08-12T05:26:51;20.90;99.90
35593;DHT22;64447;52.140;5.602;2023-08-12T05:29:17;20.90;99.90
35593;DHT22;64447;52.140;5.602;2023-08-12T05:31:42;20.80;99.90
35593;DHT22;64447;52.140;5.602;2023-08-12T05:34:08;20.90;99.90
35593;DHT22;64447;52.140;5.602;2023-08-12T05:36:33;20.90;99.90
35593;DHT22;64447;52.140;5.602;2023-08-12T05:42:02;20.90;99.90
35593;DHT22;64447;52.140;5.602;2023-08-12T05:44:27;21.20;99.90
35593;DHT22;64447;52.140;5.602;2023-08-12T05:46:53;21.20;99.90
35593;DHT22;64447;52.140;5.602;2023-08-12T05:49:18;21.10;99.90
35593;DHT22;64447;52.140;5.602;2023-08-12T05:51:44;21.10;99.90
35593;DHT22;64447;52.140;5.602;2023-08-12T05:54:09;21.20;99.90
35593;DHT22;64447;52.140;5.602;2023-08-12T05:56:35;21.40;99.90
35593;DHT22;64447;52.140;5.602;2023-08-12T05:59:00;21.30;99.90
35593;DHT22;64447;52.140;5.602;2023-08-12T06:01:26;21.30;99.90
35593;DHT22;64447;52.140;5.602;2023-08-12T06:03:51;21.10;99.90
35593;DHT22;64447;52.140;5.602;2023-08-12T06:06:17;21.00;99.90
35593;DHT22;64447;52.140;5.602;2023-08-12T06:11:45;21.00;99.90
35593;DHT22;64447;52.140;5.602;2023-08-12T06:14:11;21.00;99.90
35593;DHT22;64447;52.140;5.602;2023-08-12T06:16:36;21.10;99.90
35593;DHT22;64447;52.140;5.602;2023-08-12T06:19:02;21.10;99.90
35593;DHT22;64447;52.140;5.602;2023-08-12T06:21:27;21.00;99.90
35593;DHT22;64447;52.140;5.602;2023-08-12T06:26:55;20.90;99.90
35593;DHT22;64447;52.140;5.602;2023-08-12T06:29:21;21.10;99.90
35593;DHT22;64447;52.140;5.602;2023-08-12T06:31:46;21.10;99.90
35593;DHT22;64447;52.140;5.602;2023-08-12T06:34:12;21.20;99.90
35593;DHT22;64447;52.140;5.602;2023-08-12T06:36:38;21.30;99.90
35593;DHT22;64447;52.140;5.602;2023-08-12T06:42:06;21.50;99.90
35593;DHT22;64447;52.140;5.602;2023-08-12T06:44:32;21.50;99.90
35593;DHT22;64447;52.140;5.602;2023-08-12T06:46:57;21.60;99.90
35593;DHT22;64447;52.140;5.602;2023-08-12T06:49:23;21.70;99.90
35593;DHT22;64447;52.140;5.602;2023-08-12T06:51:48;21.60;99.90
35593;DHT22;64447;52.140;5.602;2023-08-12T06:57:16;21.40;99.90
35593;DHT22;64447;52.140;5.602;2023-08-12T06:59:42;21.20;99.90
35593;DHT22;64447;52.140;5.602;2023-08-12T07:02:07;21.20;99.90
35593;DHT22;64447;52.140;5.602;2023-08-12T07:04:33;21.20;99.90
35593;DHT22;64447;52.140;5.602;2023-08-12T07:06:59;21.20;99.90
35593;DHT22;64447;52.140;5.602;2023-08-12T07:12:28;21.40;99.90
35593;DHT22;64447;52.140;5.602;2023-08-12T07:14:53;21.60;99.90
35593;DHT22;64447;52.140;5.602;2023-08-12T07:17:19;21.60;99.90
35593;DHT22;64447;52.140;5.602;2023-08-12T07:19:44;21.60;99.90
35593;DHT22;64447;52.140;5.602;2023-08-12T07:22:10;21.70;99.90
35593;DHT22;64447;52.140;5.602;2023-08-12T07:27:38;21.80;99.90
35593;DHT22;64447;52.140;5.602;2023-08-12T07:30:03;21.80;99.90
35593;DHT22;64447;52.140;5.602;2023-08-12T07:32:29;21.70;99.90
35593;DHT22;64447;52.140;5.602;2023-08-12T07:34:55;21.70;99.90
35593;DHT22;64447;52.140;5.602;2023-08-12T07:37:20;21.60;99.90
35593;DHT22;64447;52.140;5.602;2023-08-12T07:42:49;21.20;99.90
35593;DHT22;64447;52.140;5.602;2023-08-12T07:45:14;21.20;99.90
35593;DHT22;64447;52.140;5.602;2023-08-12T07:47:40;21.10;99.90
35593;DHT22;64447;52.140;5.602;2023-08-12T07:50:05;21.10;99.90
35593;DHT22;64447;52.140;5.602;2023-08-12T07:52:31;21.10;99.90
35593;DHT22;64447;52.140;5.602;2023-08-12T07:54:56;21.10;99.90
35593;DHT22;64447;52.140;5.602;2023-08-12T07:57:22;21.20;99.90
35593;DHT22;64447;52.140;5.602;2023-08-12T07:59:52;21.40;99.90
35593;DHT22;64447;52.140;5.602;2023-08-12T08:02:17;21.50;99.90
35593;DHT22;64447;52.140;5.602;2023-08-12T08:04:43;21.60;99.90
35593;DHT22;64447;52.140;5.602;2023-08-12T08:07:10;21.70;99.90
35593;DHT22;64447;52.140;5.602;2023-08-12T08:12:39;21.80;99.90
35593;DHT22;64447;52.140;5.602;2023-08-12T08:15:05;21.70;99.90
35593;DHT22;64447;52.140;5.602;2023-08-12T08:17:30;21.60;99.90
35593;DHT22;64447;52.140;5.602;2023-08-12T08:19:56;21.50;99.90
35593;DHT22;64447;52.140;5.602;2023-08-12T08:22:21;21.60;99.90
35593;DHT22;64447;52.140;5.602;2023-08-12T08:27:50;21.70;99.90
35593;DHT22;64447;52.140;5.602;2023-08-12T08:30:15;21.80;99.90
35593;DHT22;64447;52.140;5.602;2023-08-12T08:32:41;21.90;99.90
35593;DHT22;64447;52.140;5.602;2023-08-12T08:35:06;22.00;99.90
35593;DHT22;64447;52.140;5.602;2023-08-12T08:37:32;21.90;99.90
35593;DHT22;64447;52.140;5.602;2023-08-12T08:43:01;21.80;99.90
35593;DHT22;64447;52.140;5.602;2023-08-12T08:45:28;21.90;99.90
35593;DHT22;64447;52.140;5.602;2023-08-12T08:47:57;21.80;99.90
35593;DHT22;64447;52.140;5.602;2023-08-12T08:50:24;21.80;99.90
35593;DHT22;64447;52.140;5.602;2023-08-12T08:52:50;21.50;99.90
35593;DHT22;64447;52.140;5.602;2023-08-12T08:58:20;21.20;99.90
35593;DHT22;64447;52.140;5.602;2023-08-12T09:00:46;21.20;99.90
35593;DHT22;64447;52.140;5.602;2023-08-12T09:03:12;21.20;99.90
35593;DHT22;64447;52.140;5.602;2023-08-12T09:05:38;21.20;99.90
35593;DHT22;64447;52.140;5.602;2023-08-12T09:08:05;21.10;99.90
35593;DHT22;64447;52.140;5.602;2023-08-12T09:10:33;21.20;99.90
35593;DHT22;64447;52.140;5.602;2023-08-12T09:13:00;21.30;99.90
35593;DHT22;64447;52.140;5.602;2023-08-12T09:15:27;21.20;99.90
35593;DHT22;64447;52.140;5.602;2023-08-12T09:17:52;21.00;99.90
35593;DHT22;64447;52.140;5.602;2023-08-12T09:20:18;21.00;99.90
35593;DHT22;64447;52.140;5.602;2023-08-12T09:22:43;21.00;99.90
35593;DHT22;64447;52.140;5.602;2023-08-12T09:28:12;21.10;99.90
35593;DHT22;64447;52.140;5.602;2023-08-12T09:30:38;21.10;99.90
35593;DHT22;64447;52.140;5.602;2023-08-12T09:33:04;20.90;99.90
35593;DHT22;64447;52.140;5.602;2023-08-12T09:35:36;20.80;99.90
35593;DHT22;64447;52.140;5.602;2023-08-12T09:38:10;20.90;99.90
35593;DHT22;64447;52.140;5.602;2023-08-12T09:44:15;20.40;99.90
35593;DHT22;64447;52.140;5.602;2023-08-12T09:46:40;20.40;99.90
35593;DHT22;64447;52.140;5.602;2023-08-12T09:49:06;20.50;99.90
35593;DHT22;64447;52.140;5.602;2023-08-12T09:51:35;20.40;99.90
35593;DHT22;64447;52.140;5.602;2023-08-12T09:54:02;20.30;99.90
35593;DHT22;64447;52.140;5.602;2023-08-12T09:56:27;19.90;99.90
35593;DHT22;64447;52.140;5.602;2023-08-12T09:58:54;19.60;99.90
35593;DHT22;64447;52.140;5.602;2023-08-12T10:01:20;19.40;99.90
35593;DHT22;64447;52.140;5.602;2023-08-12T10:03:48;19.30;99.90
35593;DHT22;64447;52.140;5.602;2023-08-12T10:06:14;19.10;99.90
35593;DHT22;64447;52.140;5.602;2023-08-12T10:08:40;19.30;99.90
35593;DHT22;64447;52.140;5.602;2023-08-12T10:11:06;19.30;99.90
35593;DHT22;64447;52.140;5.602;2023-08-12T10:13:31;19.30;99.90
35593;DHT22;64447;52.140;5.602;2023-08-12T10:15:57;19.20;99.90
35593;DHT22;64447;52.140;5.602;2023-08-12T10:18:22;19.20;99.90
35593;DHT22;64447;52.140;5.602;2023-08-12T10:20:49;19.30;99.90
35593;DHT22;64447;52.140;5.602;2023-08-12T10:23:16;19.30;99.90
35593;DHT22;64447;52.140;5.602;2023-08-12T10:28:45;19.90;99.90
35593;DHT22;64447;52.140;5.602;2023-08-12T10:31:11;20.20;99.90
35593;DHT22;64447;52.140;5.602;2023-08-12T10:33:40;20.20;99.90
35593;DHT22;64447;52.140;5.602;2023-08-12T10:36:06;20.30;99.90
35593;DHT22;64447;52.140;5.602;2023-08-12T10:38:32;20.30;99.90
35593;DHT22;64447;52.140;5.602;2023-08-12T10:44:01;20.70;99.90
35593;DHT22;64447;52.140;5.602;2023-08-12T10:46:34;21.00;99.90
35593;DHT22;64447;52.140;5.602;2023-08-12T10:51:41;20.80;99.90
35593;DHT22;64447;52.140;5.602;2023-08-12T10:54:13;20.80;99.90
35593;DHT22;64447;52.140;5.602;2023-08-12T11:02:07;21.60;99.90
35593;DHT22;64447;52.140;5.602;2023-08-12T11:04:38;21.70;99.90
35593;DHT22;64447;52.140;5.602;2023-08-12T11:07:17;21.70;99.90
35593;DHT22;64447;52.140;5.602;2023-08-12T11:09:43;21.80;99.90
35593;DHT22;64447;52.140;5.602;2023-08-12T11:12:09;21.90;99.90
35593;DHT22;64447;52.140;5.602;2023-08-12T11:14:54;22.20;99.90
35593;DHT22;64447;52.140;5.602;2023-08-12T11:17:20;22.20;99.90
35593;DHT22;64447;52.140;5.602;2023-08-12T11:19:52;22.30;99.90
35593;DHT22;64447;52.140;5.602;2023-08-12T11:22:18;22.40;99.90
35593;DHT22;64447;52.140;5.602;2023-08-12T11:24:44;22.20;99.90
35593;DHT22;64447;52.140;5.602;2023-08-12T11:27:09;22.10;99.90
35593;DHT22;64447;52.140;5.602;2023-08-12T11:29:37;22.10;99.90
35593;DHT22;64447;52.140;5.602;2023-08-12T11:32:02;22.20;99.90
35593;DHT22;64447;52.140;5.602;2023-08-12T11:34:28;22.20;99.90
35593;DHT22;64447;52.140;5.602;2023-08-12T11:36:53;22.30;99.90
35593;DHT22;64447;52.140;5.602;2023-08-12T11:39:19;22.40;99.90
35593;DHT22;64447;52.140;5.602;2023-08-12T11:41:45;22.50;99.90
35593;DHT22;64447;52.140;5.602;2023-08-12T11:44:20;22.60;99.90
35593;DHT22;64447;52.140;5.602;2023-08-12T11:46:46;22.60;99.90
35593;DHT22;64447;52.140;5.602;2023-08-12T11:49:11;22.80;99.90
35593;DHT22;64447;52.140;5.602;2023-08-12T11:51:37;22.90;99.90
35593;DHT22;64447;52.140;5.602;2023-08-12T11:54:02;23.00;99.90
35593;DHT22;64447;52.140;5.602;2023-08-12T11:59:32;23.00;99.90
35593;DHT22;64447;52.140;5.602;2023-08-12T12:01:57;22.90;99.90
35593;DHT22;64447;52.140;5.602;2023-08-12T12:04:23;23.00;99.90
35593;DHT22;64447;52.140;5.602;2023-08-12T12:06:49;23.00;99.90
35593;DHT22;64447;52.140;5.602;2023-08-12T12:09:14;23.20;99.90
35593;DHT22;64447;52.140;5.602;2023-08-12T12:11:41;23.10;99.90
35593;DHT22;64447;52.140;5.602;2023-08-12T12:14:07;23.10;99.90
35593;DHT22;64447;52.140;5.602;2023-08-12T12:16:43;23.20;99.90
35593;DHT22;64447;52.140;5.602;2023-08-12T12:19:09;23.10;99.90
35593;DHT22;64447;52.140;5.602;2023-08-12T12:21:39;23.40;99.90
35593;DHT22;64447;52.140;5.602;2023-08-12T12:24:06;23.30;99.90
35593;DHT22;64447;52.140;5.602;2023-08-12T12:29:34;23.50;99.90
35593;DHT22;64447;52.140;5.602;2023-08-12T12:32:00;23.70;99.90
35593;DHT22;64447;52.140;5.602;2023-08-12T12:34:25;23.60;99.90
35593;DHT22;64447;52.140;5.602;2023-08-12T12:36:51;23.70;99.90
35593;DHT22;64447;52.140;5.602;2023-08-12T12:39:16;23.70;99.90
35593;DHT22;64447;52.140;5.602;2023-08-12T12:44:45;23.60;99.90
35593;DHT22;64447;52.140;5.602;2023-08-12T12:47:11;23.70;99.90
35593;DHT22;64447;52.140;5.602;2023-08-12T12:49:40;23.70;99.90
35593;DHT22;64447;52.140;5.602;2023-08-12T12:52:08;23.80;99.90
35593;DHT22;64447;52.140;5.602;2023-08-12T12:54:34;24.10;99.90
35593;DHT22;64447;52.140;5.602;2023-08-12T12:57:00;24.20;99.90
35593;DHT22;64447;52.140;5.602;2023-08-12T12:59:26;24.20;99.90
35593;DHT22;64447;52.140;5.602;2023-08-12T13:01:52;24.20;99.90
35593;DHT22;64447;52.140;5.602;2023-08-12T13:04:17;24.20;99.90
35593;DHT22;64447;52.140;5.602;2023-08-12T13:06:43;24.20;99.90
35593;DHT22;64447;52.140;5.602;2023-08-12T13:09:08;24.30;99.90
35593;DHT22;64447;52.140;5.602;2023-08-12T13:14:37;24.30;99.90
35593;DHT22;64447;52.140;5.602;2023-08-12T13:17:03;24.50;99.90
35593;DHT22;64447;52.140;5.602;2023-08-12T13:19:28;24.70;99.90
35593;DHT22;64447;52.140;5.602;2023-08-12T13:21:54;24.70;99.90
35593;DHT22;64447;52.140;5.602;2023-08-12T13:24:19;24.90;99.90
35593;DHT22;64447;52.140;5.602;2023-08-12T13:29:48;25.10;99.90
35593;DHT22;64447;52.140;5.602;2023-08-12T13:32:14;25.10;99.90
35593;DHT22;64447;52.140;5.602;2023-08-12T13:34:39;25.10;99.90
35593;DHT22;64447;52.140;5.602;2023-08-12T13:37:05;25.10;99.90
35593;DHT22;64447;52.140;5.602;2023-08-12T13:39:31;25.10;99.90
35593;DHT22;64447;52.140;5.602;2023-08-12T13:44:59;25.20;99.90
35593;DHT22;64447;52.140;5.602;2023-08-12T13:47:25;25.10;99.90
35593;DHT22;64447;52.140;5.602;2023-08-12T13:49:51;25.00;99.90
35593;DHT22;64447;52.140;5.602;2023-08-12T13:52:16;25.00;99.90
35593;DHT22;64447;52.140;5.602;2023-08-12T13:54:42;25.00;99.90
35593;DHT22;64447;52.140;5.602;2023-08-12T14:00:11;24.70;99.90
35593;DHT22;64447;52.140;5.602;2023-08-12T14:02:38;24.70;99.90
35593;DHT22;64447;52.140;5.602;2023-08-12T14:05:04;24.80;99.90
35593;DHT22;64447;52.140;5.602;2023-08-12T14:07:30;24.80;99.90
35593;DHT22;64447;52.140;5.602;2023-08-12T14:09:55;24.80;99.90
35593;DHT22;64447;52.140;5.602;2023-08-12T14:15:24;24.70;99.90
35593;DHT22;64447;52.140;5.602;2023-08-12T14:17:49;24.70;99.90
35593;DHT22;64447;52.140;5.602;2023-08-12T14:20:15;24.60;99.90
35593;DHT22;64447;52.140;5.602;2023-08-12T14:22:40;24.50;99.90
35593;DHT22;64447;52.140;5.602;2023-08-12T14:25:06;24.60;99.90
35593;DHT22;64447;52.140;5.602;2023-08-12T14:27:32;24.50;99.90
35593;DHT22;64447;52.140;5.602;2023-08-12T14:29:57;24.50;99.90
35593;DHT22;64447;52.140;5.602;2023-08-12T14:32:23;24.40;99.90
35593;DHT22;64447;52.140;5.602;2023-08-12T14:34:48;24.60;99.90
35593;DHT22;64447;52.140;5.602;2023-08-12T14:37:14;24.70;99.90
35593;DHT22;64447;52.140;5.602;2023-08-12T14:39:39;24.60;99.90
35593;DHT22;64447;52.140;5.602;2023-08-12T14:45:08;24.60;99.90
35593;DHT22;64447;52.140;5.602;2023-08-12T14:47:34;24.70;99.90
35593;DHT22;64447;52.140;5.602;2023-08-12T14:49:59;24.80;99.90
35593;DHT22;64447;52.140;5.602;2023-08-12T14:52:25;24.70;99.90
35593;DHT22;64447;52.140;5.602;2023-08-12T14:54:50;24.90;99.90
35593;DHT22;64447;52.140;5.602;2023-08-12T15:00:19;24.90;99.90
35593;DHT22;64447;52.140;5.602;2023-08-12T15:02:45;24.70;99.90
35593;DHT22;64447;52.140;5.602;2023-08-12T15:05:10;24.60;99.90
35593;DHT22;64447;52.140;5.602;2023-08-12T15:07:36;24.50;99.90
35593;DHT22;64447;52.140;5.602;2023-08-12T15:10:01;24.40;99.90
35593;DHT22;64447;52.140;5.602;2023-08-12T15:15:30;24.60;99.90
35593;DHT22;64447;52.140;5.602;2023-08-12T15:17:55;24.60;99.90
35593;DHT22;64447;52.140;5.602;2023-08-12T15:20:21;24.50;99.90
35593;DHT22;64447;52.140;5.602;2023-08-12T15:22:46;24.60;99.90
35593;DHT22;64447;52.140;5.602;2023-08-12T15:25:12;24.50;99.90
35593;DHT22;64447;52.140;5.602;2023-08-12T15:30:41;24.40;99.90
35593;DHT22;64447;52.140;5.602;2023-08-12T15:33:07;24.30;99.90
35593;DHT22;64447;52.140;5.602;2023-08-12T15:35:32;24.30;99.90
35593;DHT22;64447;52.140;5.602;2023-08-12T15:37:58;24.20;99.90
35593;DHT22;64447;52.140;5.602;2023-08-12T15:40:23;24.20;99.90
35593;DHT22;64447;52.140;5.602;2023-08-12T15:45:53;24.20;99.90
35593;DHT22;64447;52.140;5.602;2023-08-12T15:48:18;24.30;99.90
35593;DHT22;64447;52.140;5.602;2023-08-12T15:50:44;24.20;99.90
35593;DHT22;64447;52.140;5.602;2023-08-12T15:53:10;24.20;99.90
35593;DHT22;64447;52.140;5.602;2023-08-12T15:55:35;24.20;99.90
35593;DHT22;64447;52.140;5.602;2023-08-12T16:01:05;24.20;99.90
35593;DHT22;64447;52.140;5.602;2023-08-12T16:03:31;24.10;99.90
35593;DHT22;64447;52.140;5.602;2023-08-12T16:05:57;24.10;99.90
35593;DHT22;64447;52.140;5.602;2023-08-12T16:08:23;24.20;99.90
35593;DHT22;64447;52.140;5.602;2023-08-12T16:10:49;24.40;99.90
35593;DHT22;64447;52.140;5.602;2023-08-12T16:13:14;24.40;99.90
35593;DHT22;64447;52.140;5.602;2023-08-12T16:15:40;24.50;99.90
35593;DHT22;64447;52.140;5.602;2023-08-12T16:18:05;24.30;99.90
35593;DHT22;64447;52.140;5.602;2023-08-12T16:20:31;24.30;99.90
35593;DHT22;64447;52.140;5.602;2023-08-12T16:22:56;24.20;99.90
35593;DHT22;64447;52.140;5.602;2023-08-12T16:25:22;24.20;99.90
35593;DHT22;64447;52.140;5.602;2023-08-12T16:30:51;24.10;99.90
35593;DHT22;64447;52.140;5.602;2023-08-12T16:33:16;24.00;99.90
35593;DHT22;64447;52.140;5.602;2023-08-12T16:35:42;24.00;99.90
35593;DHT22;64447;52.140;5.602;2023-08-12T16:38:07;23.90;99.80
35593;DHT22;64447;52.140;5.602;2023-08-12T16:40:33;23.90;99.90
35593;DHT22;64447;52.140;5.602;2023-08-12T16:46:01;23.90;99.90
35593;DHT22;64447;52.140;5.602;2023-08-12T16:48:27;23.90;99.90
35593;DHT22;64447;52.140;5.602;2023-08-12T16:50:52;23.90;99.90
35593;DHT22;64447;52.140;5.602;2023-08-12T16:53:18;23.90;99.90
35593;DHT22;64447;52.140;5.602;2023-08-12T16:55:43;23.80;99.90
35593;DHT22;64447;52.140;5.602;2023-08-12T17:01:11;23.80;99.70
35593;DHT22;64447;52.140;5.602;2023-08-12T17:03:37;23.80;99.60
35593;DHT22;64447;52.140;5.602;2023-08-12T17:06:02;23.90;99.90
35593;DHT22;64447;52.140;5.602;2023-08-12T17:08:28;23.90;99.00
35593;DHT22;64447;52.140;5.602;2023-08-12T17:10:54;23.90;99.40
35593;DHT22;64447;52.140;5.602;2023-08-12T17:13:19;24.10;99.60
35593;DHT22;64447;52.140;5.602;2023-08-12T17:15:45;24.00;99.50
35593;DHT22;64447;52.140;5.602;2023-08-12T17:18:10;24.10;99.30
35593;DHT22;64447;52.140;5.602;2023-08-12T17:20:37;23.90;98.20
35593;DHT22;64447;52.140;5.602;2023-08-12T17:23:02;23.80;99.20
35593;DHT22;64447;52.140;5.602;2023-08-12T17:25:28;23.80;98.90
35593;DHT22;64447;52.140;5.602;2023-08-12T17:30:56;23.90;98.60
35593;DHT22;64447;52.140;5.602;2023-08-12T17:33:22;24.10;99.00
35593;DHT22;64447;52.140;5.602;2023-08-12T17:35:47;24.20;98.70
35593;DHT22;64447;52.140;5.602;2023-08-12T17:38:13;24.20;98.90
35593;DHT22;64447;52.140;5.602;2023-08-12T17:40:39;24.00;98.40
35593;DHT22;64447;52.140;5.602;2023-08-12T17:46:07;23.80;98.40
35593;DHT22;64447;52.140;5.602;2023-08-12T17:48:32;23.90;99.10
35593;DHT22;64447;52.140;5.602;2023-08-12T17:50:58;23.80;99.20
35593;DHT22;64447;52.140;5.602;2023-08-12T17:53:23;23.90;99.10
35593;DHT22;64447;52.140;5.602;2023-08-12T17:55:49;23.90;99.50
35593;DHT22;64447;52.140;5.602;2023-08-12T18:01:17;24.00;99.30
35593;DHT22;64447;52.140;5.602;2023-08-12T18:03:43;23.90;99.60
35593;DHT22;64447;52.140;5.602;2023-08-12T18:06:08;23.90;99.70
35593;DHT22;64447;52.140;5.602;2023-08-12T18:08:34;23.90;99.40
35593;DHT22;64447;52.140;5.602;2023-08-12T18:11:00;23.90;99.80
35593;DHT22;64447;52.140;5.602;2023-08-12T18:16:29;23.90;99.90
35593;DHT22;64447;52.140;5.602;2023-08-12T18:18:54;23.90;99.90